Temp: 13.9°C   Baro: 1018.4mb
  Wind: 0.0mph   Dir: NE (52°)
  Rain: 0.0mm (0.0mm/hr)
  Solar: 0W/m2  Hum: 85%
 
Bath Spa Weather Station Historical Data
Daily Summary for June 19, 2019 Units:  Both    English   Metric
Daily Weekly Monthly Yearly Custom
  High: Low: Average:
Temperature: 72.9 °F /  22.7 °C 44.2 °F /  6.8 °C 57.2 °F /  14 °C
Dew Point: 54.1 °F /  12.3 °C 41.2 °F /  5.1 °C 47.9 °F /  8.8 °C
Humidity: 90% 51.2% 73%
Wind Speed: 4.9mph /  7.9km/h - 0.8mph /  1.3km/h
Wind Gust: 11mph /  17.7km/h - -
Wind- - ENE
Pressure: 30.47 in /  1031.7 hPa 30.37 in /  1028.3 hPa -
Precipitation: 0.00 in /  0 mm    
Historical Graphs
 
 
Tabular Data for June 19, 2019
Time Temperature Dew Point Pressure Wind Wind Speed Wind Gust Humidity Rainfall Rate (Hourly) solar
00:04 50.4 °F /  10.2 °C 44.4 °F /  6.9 °C 30.43in /  1030.4hPa Calm     80% 0.00in /  0mm 0 W/m2
00:09 50.4 °F /  10.2 °C 44.8 °F /  7.1 °C 30.43in /  1030.4hPa Calm     80.9% 0.00in /  0mm 0 W/m2
00:14 50.4 °F /  10.2 °C 44.9 °F /  7.2 °C 30.43in /  1030.4hPa Calm     81% 0.00in /  0mm 0 W/m2
00:19 50.4 °F /  10.2 °C 44.8 °F /  7.1 °C 30.43in /  1030.4hPa Calm     81% 0.00in /  0mm 0 W/m2
00:24 50.4 °F /  10.2 °C 44.8 °F /  7.1 °C 30.43in /  1030.4hPa Calm     81% 0.00in /  0mm 0 W/m2
00:29 50.2 °F /  10.1 °C 44.6 °F /  7 °C 30.43in /  1030.4hPa Calm     81% 0.00in /  0mm 0 W/m2
00:34 50 °F /  10 °C 44.5 °F /  6.9 °C 30.43in /  1030.4hPa Calm     81.2% 0.00in /  0mm 0 W/m2
00:39 49.8 °F /  9.9 °C 44.6 °F /  7 °C 30.43in /  1030.4hPa Calm     82% 0.00in /  0mm 0 W/m2
00:44 49.8 °F /  9.9 °C 44.6 °F /  7 °C 30.43in /  1030.4hPa Calm     82% 0.00in /  0mm 0 W/m2
00:49 49.7 °F /  9.8 °C 44.5 °F /  6.9 °C 30.43in /  1030.4hPa Calm     82% 0.00in /  0mm 0 W/m2
00:54 49.6 °F /  9.8 °C 44.4 °F /  6.9 °C 30.43in /  1030.4hPa North 0.1mph /  0.2km/h 1mph /  1.6km/h 82% 0.00in /  0mm 0 W/m2
00:59 49.5 °F /  9.7 °C 44.2 °F /  6.8 °C 30.43in /  1030.4hPa Calm     82% 0.00in /  0mm 0 W/m2
01:04 49.5 °F /  9.7 °C 44.2 °F /  6.8 °C 30.43in /  1030.4hPa Calm     82% 0.00in /  0mm 0 W/m2
01:09 49.5 °F /  9.7 °C 44.3 °F /  6.8 °C 30.43in /  1030.4hPa Calm     82.3% 0.00in /  0mm 0 W/m2
01:14 49.3 °F /  9.6 °C 44.4 °F /  6.9 °C 30.43in /  1030.4hPa Calm     83% 0.00in /  0mm 0 W/m2
01:19 49.2 °F /  9.6 °C 44.3 °F /  6.8 °C 30.43in /  1030.4hPa Calm     83% 0.00in /  0mm 0 W/m2
01:24 48.8 °F /  9.3 °C 44 °F /  6.7 °C 30.43in /  1030.4hPa North 0.1mph /  0.2km/h 1mph /  1.6km/h 83% 0.00in /  0mm 0 W/m2
01:29 48.4 °F /  9.1 °C 43.5 °F /  6.4 °C 30.43in /  1030.4hPa North 0.1mph /  0.2km/h 1mph /  1.6km/h 83% 0.00in /  0mm 0 W/m2
01:34 48.1 °F /  8.9 °C 43.3 °F /  6.3 °C 30.43in /  1030.4hPa Calm   1mph /  1.6km/h 83.8% 0.00in /  0mm 0 W/m2
01:39 48 °F /  8.9 °C 43.4 °F /  6.3 °C 30.43in /  1030.4hPa North 0.2mph /  0.3km/h 1mph /  1.6km/h 84.2% 0.00in /  0mm 0 W/m2
01:44 47.8 °F /  8.8 °C 43.2 °F /  6.2 °C 30.43in /  1030.4hPa Calm   1mph /  1.6km/h 84% 0.00in /  0mm 0 W/m2
01:49 47.8 °F /  8.8 °C 43.5 °F /  6.4 °C 30.43in /  1030.4hPa Calm   1mph /  1.6km/h 84.9% 0.00in /  0mm 0 W/m2
01:54 47.7 °F /  8.7 °C 43.3 °F /  6.3 °C 30.43in /  1030.4hPa Calm   1mph /  1.6km/h 85% 0.00in /  0mm 0 W/m2
01:59 47.6 °F /  8.7 °C 43.3 °F /  6.3 °C 30.43in /  1030.4hPa Calm     85% 0.00in /  0mm 0 W/m2
02:04 47.3 °F /  8.5 °C 43 °F /  6.1 °C 30.43in /  1030.4hPa North 0.5mph /  0.8km/h 2mph /  3.2km/h 85% 0.00in /  0mm 0 W/m2
02:09 47.1 °F /  8.4 °C 42.8 °F /  6 °C 30.43in /  1030.4hPa Calm   1mph /  1.6km/h 85% 0.00in /  0mm 0 W/m2
02:14 46.9 °F /  8.3 °C 42.6 °F /  5.9 °C 30.43in /  1030.4hPa North 0.6mph /  1km/h 2mph /  3.2km/h 85% 0.00in /  0mm 0 W/m2
02:19 46.9 °F /  8.3 °C 43 °F /  6.1 °C 30.43in /  1030.4hPa North 1mph /  1.6km/h 3mph /  4.8km/h 85.9% 0.00in /  0mm 0 W/m2
02:24 46.9 °F /  8.3 °C 43 °F /  6.1 °C 30.43in /  1030.4hPa North 0.5mph /  0.8km/h 3mph /  4.8km/h 86% 0.00in /  0mm 0 W/m2
02:29 46.9 °F /  8.3 °C 43 °F /  6.1 °C 30.43in /  1030.4hPa Calm   1mph /  1.6km/h 86% 0.00in /  0mm 0 W/m2
02:34 46.9 °F /  8.3 °C 43 °F /  6.1 °C 30.43in /  1030.4hPa Calm     86% 0.00in /  0mm 0 W/m2
02:39 46.8 °F /  8.2 °C 42.9 °F /  6.1 °C 30.43in /  1030.4hPa North 0.2mph /  0.3km/h 1mph /  1.6km/h 86% 0.00in /  0mm 0 W/m2
02:44 46.8 °F /  8.2 °C 42.8 °F /  6 °C 30.43in /  1030.4hPa Calm   1mph /  1.6km/h 86% 0.00in /  0mm 0 W/m2
02:49 46.5 °F /  8.1 °C 42.5 °F /  5.8 °C 30.43in /  1030.4hPa Calm     86% 0.00in /  0mm 0 W/m2
02:54 46.4 °F /  8 °C 42.4 °F /  5.8 °C 30.43in /  1030.4hPa Calm     86% 0.00in /  0mm 0 W/m2
02:59 46.3 °F /  7.9 °C 42.3 °F /  5.7 °C 30.43in /  1030.4hPa Calm     86% 0.00in /  0mm 0 W/m2
03:04 46.2 °F /  7.9 °C 42.3 °F /  5.7 °C 30.43in /  1030.4hPa Calm     86% 0.00in /  0mm 0 W/m2
03:09 46.2 °F /  7.9 °C 42.3 °F /  5.7 °C 30.43in /  1030.4hPa Calm     86% 0.00in /  0mm 0 W/m2
03:14 46.2 °F /  7.9 °C 42.3 °F /  5.7 °C 30.43in /  1030.4hPa Calm     86% 0.00in /  0mm 0 W/m2
03:19 46.2 °F /  7.9 °C 42.3 °F /  5.7 °C 30.43in /  1030.4hPa Calm     86% 0.00in /  0mm 0 W/m2
03:24 46.2 °F /  7.9 °C 42.3 °F /  5.7 °C 30.43in /  1030.4hPa Calm     86% 0.00in /  0mm 0 W/m2
03:29 46.2 °F /  7.9 °C 42.3 °F /  5.7 °C 30.43in /  1030.4hPa Calm     86% 0.00in /  0mm 0 W/m2
03:34 46.1 °F /  7.8 °C 42.2 °F /  5.7 °C 30.43in /  1030.4hPa Calm     86% 0.00in /  0mm 0 W/m2
03:39 46 °F /  7.8 °C 42.3 °F /  5.7 °C 30.43in /  1030.4hPa Calm     86.7% 0.00in /  0mm 0 W/m2
03:44 46 °F /  7.8 °C 42.4 °F /  5.8 °C 30.43in /  1030.4hPa North 0.4mph /  0.6km/h 2mph /  3.2km/h 87% 0.00in /  0mm 0 W/m2
03:49 45.9 °F /  7.7 °C 42.3 °F /  5.7 °C 30.43in /  1030.4hPa Calm   2mph /  3.2km/h 87% 0.00in /  0mm 0 W/m2
03:54 45.7 °F /  7.6 °C 42.1 °F /  5.6 °C 30.43in /  1030.4hPa Calm     87% 0.00in /  0mm 0 W/m2
03:59 45.5 °F /  7.5 °C 41.9 °F /  5.5 °C 30.43in /  1030.4hPa Calm     87% 0.00in /  0mm 0 W/m2
04:04 45.5 °F /  7.5 °C 41.9 °F /  5.5 °C 30.43in /  1030.4hPa Calm     87% 0.00in /  0mm 0 W/m2
04:09 45.5 °F /  7.5 °C 41.9 °F /  5.5 °C 30.43in /  1030.4hPa Calm     87% 0.00in /  0mm 0 W/m2
04:14 45.5 °F /  7.5 °C 41.9 °F /  5.5 °C 30.43in /  1030.4hPa Calm     87% 0.00in /  0mm 0 W/m2
04:19 45.5 °F /  7.5 °C 41.9 °F /  5.5 °C 30.43in /  1030.4hPa Calm     87.2% 0.00in /  0mm 0 W/m2
04:24 45.5 °F /  7.5 °C 41.9 °F /  5.5 °C 30.43in /  1030.4hPa Calm     87.2% 0.00in /  0mm 0 W/m2
04:29 45.5 °F /  7.5 °C 42.1 °F /  5.6 °C 30.43in /  1030.4hPa Calm     87.8% 0.00in /  0mm 0 W/m2
04:34 45.5 °F /  7.5 °C 42.1 °F /  5.6 °C 30.43in /  1030.4hPa Calm     88% 0.00in /  0mm 0 W/m2
04:39 45.4 °F /  7.4 °C 42 °F /  5.6 °C 30.43in /  1030.4hPa Calm     88% 0.00in /  0mm 0 W/m2
04:44 45.3 °F /  7.4 °C 41.9 °F /  5.5 °C 30.43in /  1030.4hPa Calm     88% 0.00in /  0mm 0 W/m2
04:49 45.3 °F /  7.4 °C 41.9 °F /  5.5 °C 30.43in /  1030.4hPa Calm     88% 0.00in /  0mm 0 W/m2
04:54 45.3 °F /  7.4 °C 41.9 °F /  5.5 °C 30.43in /  1030.4hPa Calm     88% 0.00in /  0mm 0 W/m2
04:59 45.3 °F /  7.4 °C 41.9 °F /  5.5 °C 30.43in /  1030.4hPa Calm     88% 0.00in /  0mm 0 W/m2
05:04 45.3 °F /  7.4 °C 41.9 °F /  5.5 °C 30.43in /  1030.4hPa North 0.2mph /  0.3km/h 1mph /  1.6km/h 88% 0.00in /  0mm 0 W/m2
05:09 45.3 °F /  7.4 °C 41.9 °F /  5.5 °C 30.43in /  1030.4hPa Calm   1mph /  1.6km/h 88% 0.00in /  0mm 0 W/m2
05:14 45.2 °F /  7.3 °C 41.8 °F /  5.4 °C 30.43in /  1030.4hPa Calm   1mph /  1.6km/h 88% 0.00in /  0mm 0 W/m2
05:19 45.1 °F /  7.3 °C 41.7 °F /  5.4 °C 30.43in /  1030.4hPa Calm     88% 0.00in /  0mm 0 W/m2
05:24 45.1 °F /  7.3 °C 41.7 °F /  5.4 °C 30.43in /  1030.4hPa Calm     88% 0.00in /  0mm 0 W/m2
05:29 45.1 °F /  7.3 °C 41.6 °F /  5.3 °C 30.43in /  1030.4hPa Calm     88% 0.00in /  0mm 0 W/m2
05:34 45 °F /  7.2 °C 41.5 °F /  5.3 °C 30.43in /  1030.4hPa Calm     88% 0.00in /  0mm 0 W/m2
05:39 44.9 °F /  7.2 °C 41.4 °F /  5.2 °C 30.43in /  1030.4hPa Calm     88% 0.00in /  0mm 0 W/m2
05:44 44.7 °F /  7.1 °C 41.3 °F /  5.2 °C 30.43in /  1030.4hPa Calm     88% 0.00in /  0mm 0 W/m2
05:49 44.6 °F /  7 °C 41.2 °F /  5.1 °C 30.43in /  1030.4hPa Calm     88% 0.00in /  0mm 0 W/m2
05:54 44.6 °F /  7 °C 41.3 °F /  5.2 °C 30.43in /  1030.4hPa Calm     88.4% 0.00in /  0mm 0 W/m2
05:59 44.5 °F /  6.9 °C 41.4 °F /  5.2 °C 30.43in /  1030.4hPa Calm     89% 0.00in /  0mm 0 W/m2
06:04 44.4 °F /  6.9 °C 41.4 °F /  5.2 °C 30.43in /  1030.4hPa Calm     89% 0.00in /  0mm 0 W/m2
06:09 44.5 °F /  6.9 °C 41.4 °F /  5.2 °C 30.43in /  1030.4hPa Calm     89% 0.00in /  0mm 0 W/m2
06:14 44.4 °F /  6.9 °C 41.4 °F /  5.2 °C 30.44in /  1030.7hPa Calm     89% 0.00in /  0mm 0 W/m2
06:19 44.4 °F /  6.9 °C 41.4 °F /  5.2 °C 30.44in /  1030.7hPa Calm     89% 0.00in /  0mm 0 W/m2
06:24 44.3 °F /  6.8 °C 41.3 °F /  5.2 °C 30.44in /  1030.7hPa Calm     89% 0.00in /  0mm 0 W/m2
06:29 44.2 °F /  6.8 °C 41.2 °F /  5.1 °C 30.44in /  1030.7hPa Calm     89% 0.00in /  0mm 0 W/m2
06:34 44.2 °F /  6.8 °C 41.2 °F /  5.1 °C 30.44in /  1030.7hPa Calm     89% 0.00in /  0mm 0 W/m2
06:39 44.2 °F /  6.8 °C 41.2 °F /  5.1 °C 30.44in /  1030.7hPa Calm     89% 0.00in /  0mm 0 W/m2
06:44 44.2 °F /  6.8 °C 41.2 °F /  5.1 °C 30.44in /  1030.7hPa Calm     89% 0.00in /  0mm 0 W/m2
06:49 44.2 °F /  6.8 °C 41.2 °F /  5.1 °C 30.44in /  1030.7hPa Calm     89% 0.00in /  0mm 0 W/m2
06:54 44.4 °F /  6.9 °C 41.4 °F /  5.2 °C 30.44in /  1030.7hPa North 0.1mph /  0.2km/h 1mph /  1.6km/h 89% 0.00in /  0mm 5 W/m2
06:59 44.2 °F /  6.8 °C 41.2 °F /  5.1 °C 30.44in /  1030.7hPa Calm   1mph /  1.6km/h 89% 0.00in /  0mm 7 W/m2
07:04 44.2 °F /  6.8 °C 41.2 °F /  5.1 °C 30.45in /  1031hPa Calm     89% 0.00in /  0mm 11 W/m2
07:09 44.3 °F /  6.8 °C 41.3 °F /  5.2 °C 30.45in /  1031hPa Calm     89% 0.00in /  0mm 14 W/m2
07:14 44.4 °F /  6.9 °C 41.4 °F /  5.2 °C 30.45in /  1031hPa North 0.1mph /  0.2km/h 1mph /  1.6km/h 89% 0.00in /  0mm 19 W/m2
07:19 44.2 °F /  6.8 °C 41.3 °F /  5.2 °C 30.45in /  1031hPa Calm     89.5% 0.00in /  0mm 23 W/m2
07:24 44.4 °F /  6.9 °C 41.7 °F /  5.4 °C 30.45in /  1031hPa Calm     90% 0.00in /  0mm 26 W/m2
07:29 44.9 °F /  7.2 °C 42.2 °F /  5.7 °C 30.45in /  1031hPa Calm     90% 0.00in /  0mm 32 W/m2
07:34 45.6 °F /  7.6 °C 42.9 °F /  6.1 °C 30.45in /  1031hPa Calm     90% 0.00in /  0mm 33 W/m2
07:39 46.1 °F /  7.8 °C 43.4 °F /  6.3 °C 30.45in /  1031hPa Calm     90% 0.00in /  0mm 37 W/m2
07:44 46.5 °F /  8.1 °C 43.8 °F /  6.6 °C 30.45in /  1031hPa Calm     90% 0.00in /  0mm 40 W/m2
07:49 45.9 °F /  7.7 °C 43 °F /  6.1 °C 30.45in /  1031hPa Calm     89.3% 0.00in /  0mm 42 W/m2
07:54 45.7 °F /  7.6 °C 42.6 °F /  5.9 °C 30.45in /  1031hPa Calm     89% 0.00in /  0mm 46 W/m2
07:59 45.8 °F /  7.7 °C 42.7 °F /  5.9 °C 30.45in /  1031hPa Calm     89% 0.00in /  0mm 47 W/m2
08:04 46 °F /  7.8 °C 43 °F /  6.1 °C 30.45in /  1031hPa Calm     89% 0.00in /  0mm 51 W/m2
08:09 46.4 °F /  8 °C 43.3 °F /  6.3 °C 30.45in /  1031hPa Calm     89% 0.00in /  0mm 54 W/m2
08:14 46.8 °F /  8.2 °C 43.7 °F /  6.5 °C 30.45in /  1031hPa Calm     89% 0.00in /  0mm 62 W/m2
08:19 46.9 °F /  8.3 °C 43.8 °F /  6.6 °C 30.46in /  1031.4hPa Calm     88.6% 0.00in /  0mm 69 W/m2
08:24 46.9 °F /  8.3 °C 43.5 °F /  6.4 °C 30.46in /  1031.4hPa Calm     88% 0.00in /  0mm 76 W/m2
08:29 47 °F /  8.3 °C 43.6 °F /  6.4 °C 30.46in /  1031.4hPa Calm     88% 0.00in /  0mm 86 W/m2
08:34 47.3 °F /  8.5 °C 43.9 °F /  6.6 °C 30.46in /  1031.4hPa Calm     88% 0.00in /  0mm 102 W/m2
08:39 47.6 °F /  8.7 °C 44.1 °F /  6.7 °C 30.46in /  1031.4hPa Calm     88% 0.00in /  0mm 127 W/m2
08:44 48 °F /  8.9 °C 44.4 °F /  6.9 °C 30.46in /  1031.4hPa Calm     87.4% 0.00in /  0mm 142 W/m2
08:49 48.2 °F /  9 °C 44.6 °F /  7 °C 30.46in /  1031.4hPa Calm     87% 0.00in /  0mm 144 W/m2
08:54 48.6 °F /  9.2 °C 44.7 °F /  7.1 °C 30.47in /  1031.7hPa Calm     86.5% 0.00in /  0mm 151 W/m2
08:59 49 °F /  9.4 °C 45 °F /  7.2 °C 30.47in /  1031.7hPa Calm     86% 0.00in /  0mm 174 W/m2
09:04 49.5 °F /  9.7 °C 45.4 °F /  7.4 °C 30.47in /  1031.7hPa Calm     85.5% 0.00in /  0mm 202 W/m2
09:09 50.2 °F /  10.1 °C 45.8 °F /  7.7 °C 30.47in /  1031.7hPa Calm     84.9% 0.00in /  0mm 218 W/m2
09:14 50.9 °F /  10.5 °C 46.1 °F /  7.8 °C 30.47in /  1031.7hPa North 0.1mph /  0.2km/h 1mph /  1.6km/h 83.8% 0.00in /  0mm 230 W/m2
09:19 51.9 °F /  11.1 °C 46.6 °F /  8.1 °C 30.47in /  1031.7hPa Calm     82.4% 0.00in /  0mm 236 W/m2
09:24 52.3 °F /  11.3 °C 46.7 °F /  8.2 °C 30.47in /  1031.7hPa North 0.1mph /  0.2km/h 1mph /  1.6km/h 81% 0.00in /  0mm 230 W/m2
09:29 52.9 °F /  11.6 °C 47 °F /  8.3 °C 30.47in /  1031.7hPa Calm     80.2% 0.00in /  0mm 258 W/m2
09:34 53.3 °F /  11.8 °C 47 °F /  8.3 °C 30.47in /  1031.7hPa Calm     79% 0.00in /  0mm 279 W/m2
09:39 53.8 °F /  12.1 °C 47.3 °F /  8.5 °C 30.47in /  1031.7hPa Calm     78.3% 0.00in /  0mm 295 W/m2
09:44 54.6 °F /  12.6 °C 47.7 °F /  8.7 °C 30.47in /  1031.7hPa Calm     77.3% 0.00in /  0mm 306 W/m2
09:49 55 °F /  12.8 °C 47.3 °F /  8.5 °C 30.47in /  1031.7hPa SE 2.2mph /  3.5km/h 4mph /  6.4km/h 75.1% 0.00in /  0mm 329 W/m2
09:54 55.5 °F /  13.1 °C 47.5 °F /  8.6 °C 30.47in /  1031.7hPa SE 1mph /  1.6km/h 4mph /  6.4km/h 74.3% 0.00in /  0mm 346 W/m2
09:59 56.5 °F /  13.6 °C 47.9 °F /  8.8 °C 30.47in /  1031.7hPa SE 0.5mph /  0.8km/h 2mph /  3.2km/h 72.9% 0.00in /  0mm 360 W/m2
10:04 56.8 °F /  13.8 °C 47.6 °F /  8.7 °C 30.47in /  1031.7hPa SE 0.6mph /  1km/h 3mph /  4.8km/h 71.3% 0.00in /  0mm 374 W/m2
10:09 56.8 °F /  13.8 °C 47.3 °F /  8.5 °C 30.47in /  1031.7hPa SE 0.8mph /  1.3km/h 3mph /  4.8km/h 70.6% 0.00in /  0mm 388 W/m2
10:14 57 °F /  13.9 °C 47.5 °F /  8.6 °C 30.47in /  1031.7hPa SE 0.8mph /  1.3km/h 3mph /  4.8km/h 70.5% 0.00in /  0mm 403 W/m2
10:19 57.5 °F /  14.2 °C 47.8 °F /  8.8 °C 30.47in /  1031.7hPa SE 0.7mph /  1.1km/h 3mph /  4.8km/h 70.2% 0.00in /  0mm 410 W/m2
10:24 57.7 °F /  14.3 °C 48 °F /  8.9 °C 30.47in /  1031.7hPa SE 0.2mph /  0.3km/h 3mph /  4.8km/h 70% 0.00in /  0mm 427 W/m2
10:29 58.4 °F /  14.7 °C 48.4 °F /  9.1 °C 30.47in /  1031.7hPa SE 1.2mph /  1.9km/h 4mph /  6.4km/h 69.3% 0.00in /  0mm 436 W/m2
10:34 59.4 °F /  15.2 °C 49 °F /  9.4 °C 30.46in /  1031.4hPa Calm   1mph /  1.6km/h 68.4% 0.00in /  0mm 446 W/m2
10:39 59.3 °F /  15.2 °C 48.2 °F /  9 °C 30.47in /  1031.7hPa Calm     66.8% 0.00in /  0mm 454 W/m2
10:44 59.4 °F /  15.2 °C 48.6 °F /  9.2 °C 30.47in /  1031.7hPa Calm     67.3% 0.00in /  0mm 464 W/m2
10:49 59.3 °F /  15.2 °C 48.3 °F /  9.1 °C 30.47in /  1031.7hPa SE 0.4mph /  0.6km/h 2mph /  3.2km/h 67% 0.00in /  0mm 473 W/m2
10:54 60.6 °F /  15.9 °C 49.3 °F /  9.6 °C 30.47in /  1031.7hPa SE 0.1mph /  0.2km/h 2mph /  3.2km/h 66.2% 0.00in /  0mm 482 W/m2
10:59 62.5 °F /  16.9 °C 49.7 °F /  9.8 °C 30.47in /  1031.7hPa SE 0.9mph /  1.4km/h 3mph /  4.8km/h 63.1% 0.00in /  0mm 490 W/m2
11:04 62.2 °F /  16.8 °C 50.5 °F /  10.3 °C 30.47in /  1031.7hPa SE 1.7mph /  2.7km/h 5mph /  8km/h 65.8% 0.00in /  0mm 499 W/m2
11:09 61.2 °F /  16.2 °C 50.4 °F /  10.2 °C 30.47in /  1031.7hPa SE 1.9mph /  3.1km/h 5mph /  8km/h 67.5% 0.00in /  0mm 506 W/m2
11:14 61.3 °F /  16.3 °C 50.7 °F /  10.4 °C 30.47in /  1031.7hPa SE 0.5mph /  0.8km/h 5mph /  8km/h 68% 0.00in /  0mm 515 W/m2
11:19 63.1 °F /  17.3 °C 51.7 °F /  10.9 °C 30.47in /  1031.7hPa ESE 0.9mph /  1.4km/h 5mph /  8km/h 66.3% 0.00in /  0mm 522 W/m2
11:24 63.3 °F /  17.4 °C 51.1 °F /  10.6 °C 30.47in /  1031.7hPa ESE 0.9mph /  1.4km/h 3mph /  4.8km/h 64.3% 0.00in /  0mm 531 W/m2
11:29 63.8 °F /  17.7 °C 51.7 °F /  10.9 °C 30.47in /  1031.7hPa ESE 1.1mph /  1.8km/h 5mph /  8km/h 64.7% 0.00in /  0mm 538 W/m2
11:34 64.4 °F /  18 °C 51.4 °F /  10.8 °C 30.47in /  1031.7hPa SE 3.5mph /  5.6km/h 6mph /  9.7km/h 62.6% 0.00in /  0mm 543 W/m2
11:39 62.1 °F /  16.7 °C 50.3 °F /  10.2 °C 30.46in /  1031.4hPa SSE 3.3mph /  5.3km/h 6mph /  9.7km/h 65.4% 0.00in /  0mm 548 W/m2
11:44 61.9 °F /  16.6 °C 50.5 °F /  10.3 °C 30.46in /  1031.4hPa SSE 3.3mph /  5.3km/h 6mph /  9.7km/h 66.3% 0.00in /  0mm 555 W/m2
11:49 63.5 °F /  17.5 °C 50.9 °F /  10.5 °C 30.46in /  1031.4hPa SE 1.7mph /  2.7km/h 5mph /  8km/h 63.4% 0.00in /  0mm 561 W/m2
11:54 65 °F /  18.3 °C 51.1 °F /  10.6 °C 30.46in /  1031.4hPa ESE 3.1mph /  5km/h 7mph /  11.3km/h 60.7% 0.00in /  0mm 570 W/m2
11:59 65.5 °F /  18.6 °C 51 °F /  10.6 °C 30.46in /  1031.4hPa East 3.8mph /  6.1km/h 9mph /  14.5km/h 59.5% 0.00in /  0mm 573 W/m2
12:04 66.8 °F /  19.3 °C 50.7 °F /  10.4 °C 30.46in /  1031.4hPa ENE 1.8mph /  2.9km/h 9mph /  14.5km/h 56.3% 0.00in /  0mm 578 W/m2
12:09 67.3 °F /  19.6 °C 50.8 °F /  10.4 °C 30.46in /  1031.4hPa East 1.6mph /  2.6km/h 7mph /  11.3km/h 55.6% 0.00in /  0mm 582 W/m2
12:14 66.1 °F /  18.9 °C 50.4 °F /  10.2 °C 30.46in /  1031.4hPa SSE 2.5mph /  4km/h 7mph /  11.3km/h 57.1% 0.00in /  0mm 587 W/m2
12:19 66.1 °F /  18.9 °C 50.9 °F /  10.5 °C 30.46in /  1031.4hPa ESE 2.3mph /  3.7km/h 6mph /  9.7km/h 58% 0.00in /  0mm 591 W/m2
12:24 64.6 °F /  18.1 °C 49.7 °F /  9.8 °C 30.46in /  1031.4hPa SSE 4.9mph /  7.9km/h 9mph /  14.5km/h 58.5% 0.00in /  0mm 594 W/m2
12:29 63.4 °F /  17.4 °C 49.6 °F /  9.8 °C 30.46in /  1031.4hPa SSE 3.1mph /  5km/h 6mph /  9.7km/h 60.9% 0.00in /  0mm 599 W/m2
12:34 63.9 °F /  17.7 °C 50.3 °F /  10.2 °C 30.46in /  1031.4hPa SSW 2.4mph /  3.9km/h 7mph /  11.3km/h 61.1% 0.00in /  0mm 603 W/m2
12:39 64.3 °F /  17.9 °C 50.3 °F /  10.2 °C 30.45in /  1031hPa SE 2.9mph /  4.7km/h 7mph /  11.3km/h 60.3% 0.00in /  0mm 605 W/m2
12:44 66.2 °F /  19 °C 51.5 °F /  10.8 °C 30.45in /  1031hPa ESE 0.8mph /  1.3km/h 5mph /  8km/h 59.3% 0.00in /  0mm 606 W/m2
12:49 67.2 °F /  19.6 °C 51.6 °F /  10.9 °C 30.45in /  1031hPa NE 1.8mph /  2.9km/h 7mph /  11.3km/h 57.3% 0.00in /  0mm 606 W/m2
12:54 67.7 °F /  19.8 °C 51.9 °F /  11.1 °C 30.45in /  1031hPa NE 1.8mph /  2.9km/h 6mph /  9.7km/h 57.1% 0.00in /  0mm 612 W/m2
12:59 68.8 °F /  20.4 °C 52.4 °F /  11.3 °C 30.45in /  1031hPa ENE 2.1mph /  3.4km/h 6mph /  9.7km/h 55.8% 0.00in /  0mm 613 W/m2
13:04 68.4 °F /  20.2 °C 52 °F /  11.1 °C 30.45in /  1031hPa ENE 0.6mph /  1km/h 5mph /  8km/h 55.8% 0.00in /  0mm 612 W/m2
13:09 67.7 °F /  19.8 °C 52 °F /  11.1 °C 30.45in /  1031hPa ESE 2.1mph /  3.4km/h 6mph /  9.7km/h 57.1% 0.00in /  0mm 617 W/m2
13:14 67.7 °F /  19.8 °C 52.1 °F /  11.2 °C 30.44in /  1030.7hPa SE 1.6mph /  2.6km/h 5mph /  8km/h 57.5% 0.00in /  0mm 615 W/m2
13:19 67.3 °F /  19.6 °C 52.3 °F /  11.3 °C 30.44in /  1030.7hPa NNE 2.1mph /  3.4km/h 7mph /  11.3km/h 58.6% 0.00in /  0mm 615 W/m2
13:24 67.7 °F /  19.8 °C 52.9 °F /  11.6 °C 30.44in /  1030.7hPa NE 2.2mph /  3.5km/h 5mph /  8km/h 59.1% 0.00in /  0mm 613 W/m2
13:29 69.2 °F /  20.7 °C 53.1 °F /  11.7 °C 30.44in /  1030.7hPa ESE 2.4mph /  3.9km/h 6mph /  9.7km/h 56.5% 0.00in /  0mm 613 W/m2
13:34 67.9 °F /  19.9 °C 52.3 °F /  11.3 °C 30.44in /  1030.7hPa SE 2.1mph /  3.4km/h 6mph /  9.7km/h 57.5% 0.00in /  0mm 613 W/m2
13:39 68.1 °F /  20.1 °C 52.9 °F /  11.6 °C 30.44in /  1030.7hPa ESE 1.2mph /  1.9km/h 5mph /  8km/h 58.2% 0.00in /  0mm 610 W/m2
13:44 67.1 °F /  19.5 °C 52.3 °F /  11.3 °C 30.43in /  1030.4hPa SSE 4.9mph /  7.9km/h 7mph /  11.3km/h 58.9% 0.00in /  0mm 608 W/m2
13:49 66.6 °F /  19.2 °C 52.4 °F /  11.3 °C 30.44in /  1030.7hPa SSW 2.4mph /  3.9km/h 7mph /  11.3km/h 60.3% 0.00in /  0mm 605 W/m2
13:54 68.1 °F /  20.1 °C 53.1 °F /  11.7 °C 30.43in /  1030.4hPa SSE 1.7mph /  2.7km/h 7mph /  11.3km/h 58.7% 0.00in /  0mm 603 W/m2
13:59 69.5 °F /  20.8 °C 53.5 °F /  11.9 °C 30.43in /  1030.4hPa East 2.9mph /  4.7km/h 8mph /  12.9km/h 56.8% 0.00in /  0mm 601 W/m2
14:04 71.2 °F /  21.8 °C 54 °F /  12.2 °C 30.43in /  1030.4hPa East 2mph /  3.2km/h 7mph /  11.3km/h 54.5% 0.00in /  0mm 601 W/m2
14:09 71.2 °F /  21.8 °C 53.8 °F /  12.1 °C 30.43in /  1030.4hPa ENE 2.2mph /  3.5km/h 6mph /  9.7km/h 54.1% 0.00in /  0mm 596 W/m2
14:14 71 °F /  21.7 °C 53.5 °F /  11.9 °C 30.43in /  1030.4hPa SE 2.5mph /  4km/h 5mph /  8km/h 53.8% 0.00in /  0mm 592 W/m2
14:19 70.1 °F /  21.2 °C 53.5 °F /  11.9 °C 30.43in /  1030.4hPa ENE 2.5mph /  4km/h 6mph /  9.7km/h 55.6% 0.00in /  0mm 587 W/m2
14:24 70.5 °F /  21.4 °C 53.6 °F /  12 °C 30.42in /  1030hPa East 0.9mph /  1.4km/h 5mph /  8km/h 55% 0.00in /  0mm 582 W/m2
14:29 71.6 °F /  22 °C 54.1 °F /  12.3 °C 30.42in /  1030hPa East 1.3mph /  2.1km/h 5mph /  8km/h 53.8% 0.00in /  0mm 578 W/m2
14:34 71.3 °F /  21.8 °C 53.9 °F /  12.2 °C 30.42in /  1030hPa East 2.5mph /  4km/h 6mph /  9.7km/h 54% 0.00in /  0mm 575 W/m2
14:39 71.1 °F /  21.7 °C 53.7 °F /  12.1 °C 30.42in /  1030hPa NE 3.8mph /  6.1km/h 8mph /  12.9km/h 54.2% 0.00in /  0mm 568 W/m2
14:44 71.4 °F /  21.9 °C 53.9 °F /  12.2 °C 30.42in /  1030hPa ESE 1.7mph /  2.7km/h 8mph /  12.9km/h 53.8% 0.00in /  0mm 557 W/m2
14:49 70.6 °F /  21.4 °C 53.3 °F /  11.8 °C 30.42in /  1030hPa SE 2.4mph /  3.9km/h 5mph /  8km/h 54.2% 0.00in /  0mm 557 W/m2
14:54 68.1 °F /  20.1 °C 52.6 °F /  11.4 °C 30.42in /  1030hPa SSE 3.6mph /  5.8km/h 7mph /  11.3km/h 57.4% 0.00in /  0mm 550 W/m2
14:59 68.2 °F /  20.1 °C 52.9 °F /  11.6 °C 30.41in /  1029.7hPa SSE 3.5mph /  5.6km/h 7mph /  11.3km/h 58% 0.00in /  0mm 541 W/m2
15:04 68.8 °F /  20.4 °C 53.4 °F /  11.9 °C 30.41in /  1029.7hPa SE 1.3mph /  2.1km/h 7mph /  11.3km/h 57.9% 0.00in /  0mm 540 W/m2
15:09 70.9 °F /  21.6 °C 53.5 °F /  11.9 °C 30.41in /  1029.7hPa ESE 1.9mph /  3.1km/h 5mph /  8km/h 54.3% 0.00in /  0mm 534 W/m2
15:14 71 °F /  21.7 °C 53.5 °F /  11.9 °C 30.41in /  1029.7hPa East 3.7mph /  6km/h 8mph /  12.9km/h 53.9% 0.00in /  0mm 522 W/m2
15:19 71.2 °F /  21.8 °C 53.6 °F /  12 °C 30.41in /  1029.7hPa NNE 1.4mph /  2.3km/h 8mph /  12.9km/h 53.7% 0.00in /  0mm 515 W/m2
15:24 71.4 °F /  21.9 °C 53.6 °F /  12 °C 30.41in /  1029.7hPa East 3.7mph /  6km/h 7mph /  11.3km/h 53.4% 0.00in /  0mm 510 W/m2
15:29 72.1 °F /  22.3 °C 53.5 °F /  11.9 °C 30.41in /  1029.7hPa ESE 0.4mph /  0.6km/h 6mph /  9.7km/h 51.9% 0.00in /  0mm 499 W/m2
15:34 72.2 °F /  22.3 °C 53.7 °F /  12.1 °C 30.40in /  1029.3hPa ESE 2.7mph /  4.3km/h 7mph /  11.3km/h 52% 0.00in /  0mm 492 W/m2
15:39 72.9 °F /  22.7 °C 53.8 °F /  12.1 °C 30.40in /  1029.3hPa ESE 3.1mph /  5km/h 6mph /  9.7km/h 51.2% 0.00in /  0mm 487 W/m2
15:44 71 °F /  21.7 °C 52.6 °F /  11.4 °C 30.40in /  1029.3hPa SSE 3.5mph /  5.6km/h 7mph /  11.3km/h 52.1% 0.00in /  0mm 476 W/m2
15:49 69.6 °F /  20.9 °C 52.8 °F /  11.6 °C 30.40in /  1029.3hPa SE 2.4mph /  3.9km/h 7mph /  11.3km/h 55.3% 0.00in /  0mm 471 W/m2
15:54 70.3 °F /  21.3 °C 53.2 °F /  11.8 °C 30.40in /  1029.3hPa NE 2.7mph /  4.3km/h 8mph /  12.9km/h 54.7% 0.00in /  0mm 459 W/m2
15:59 70.4 °F /  21.3 °C 53.2 °F /  11.8 °C 30.39in /  1029hPa ESE 4.3mph /  6.9km/h 11mph /  17.7km/h 54.6% 0.00in /  0mm 448 W/m2
16:04 70.2 °F /  21.2 °C 53.2 °F /  11.8 °C 30.39in /  1029hPa ESE 3.3mph /  5.3km/h 11mph /  17.7km/h 54.8% 0.00in /  0mm 439 W/m2
16:09 70.8 °F /  21.6 °C 53.7 °F /  12.1 °C 30.39in /  1029hPa East 1.7mph /  2.7km/h 8mph /  12.9km/h 54.6% 0.00in /  0mm 425 W/m2
16:14 71.5 °F /  21.9 °C 53.6 °F /  12 °C 30.39in /  1029hPa ENE 2.2mph /  3.5km/h 5mph /  8km/h 53.3% 0.00in /  0mm 418 W/m2
16:19 71.7 °F /  22.1 °C 53.7 °F /  12.1 °C 30.39in /  1029hPa NE 2.2mph /  3.5km/h 5mph /  8km/h 53% 0.00in /  0mm 403 W/m2
16:24 71.2 °F /  21.8 °C 53.3 °F /  11.8 °C 30.39in /  1029hPa NNE 2.9mph /  4.7km/h 7mph /  11.3km/h 53.3% 0.00in /  0mm 396 W/m2
16:29 70.9 °F /  21.6 °C 53.8 °F /  12.1 °C 30.39in /  1029hPa NE 2.7mph /  4.3km/h 4mph /  6.4km/h 54.5% 0.00in /  0mm 385 W/m2
16:34 71.2 °F /  21.8 °C 53.8 °F /  12.1 °C 30.39in /  1029hPa North 3.8mph /  6.1km/h 10mph /  16.1km/h 54% 0.00in /  0mm 369 W/m2
16:39 71 °F /  21.7 °C 53.5 °F /  11.9 °C 30.39in /  1029hPa North 1.8mph /  2.9km/h 7mph /  11.3km/h 53.9% 0.00in /  0mm 357 W/m2
16:44 70.6 °F /  21.4 °C 53.3 °F /  11.8 °C 30.39in /  1029hPa NNE 4.7mph /  7.6km/h 10mph /  16.1km/h 54.2% 0.00in /  0mm 343 W/m2
16:49 70.4 °F /  21.3 °C 53.5 °F /  11.9 °C 30.39in /  1029hPa NE 2.6mph /  4.2km/h 10mph /  16.1km/h 55% 0.00in /  0mm 334 W/m2
16:54 70.5 °F /  21.4 °C 53.6 °F /  12 °C 30.39in /  1029hPa NNE 2.7mph /  4.3km/h 5mph /  8km/h 55% 0.00in /  0mm 323 W/m2
16:59 70.9 °F /  21.6 °C 53.7 °F /  12.1 °C 30.39in /  1029hPa NNE 2.4mph /  3.9km/h 6mph /  9.7km/h 54.3% 0.00in /  0mm 309 W/m2
17:04 71.7 °F /  22.1 °C 54 °F /  12.2 °C 30.38in /  1028.7hPa ENE 2.7mph /  4.3km/h 5mph /  8km/h 53.6% 0.00in /  0mm 295 W/m2
17:09 71.9 °F /  22.2 °C 53.9 °F /  12.2 °C 30.38in /  1028.7hPa NNE 1.3mph /  2.1km/h 6mph /  9.7km/h 53% 0.00in /  0mm 287 W/m2
17:14 71.7 °F /  22.1 °C 53.7 °F /  12.1 °C 30.38in /  1028.7hPa NNE 2.6mph /  4.2km/h 7mph /  11.3km/h 53% 0.00in /  0mm 271 W/m2
17:19 71.1 °F /  21.7 °C 53.5 °F /  11.9 °C 30.38in /  1028.7hPa NE 2.4mph /  3.9km/h 7mph /  11.3km/h 53.9% 0.00in /  0mm 258 W/m2
17:24 71.1 °F /  21.7 °C 53.6 °F /  12 °C 30.38in /  1028.7hPa ENE 1.5mph /  2.4km/h 7mph /  11.3km/h 54% 0.00in /  0mm 243 W/m2
17:29 71.3 °F /  21.8 °C 53.8 °F /  12.1 °C 30.38in /  1028.7hPa ENE 2mph /  3.2km/h 5mph /  8km/h 53.8% 0.00in /  0mm 230 W/m2
17:34 71.2 °F /  21.8 °C 53.5 °F /  11.9 °C 30.38in /  1028.7hPa North 1.2mph /  1.9km/h 5mph /  8km/h 53.5% 0.00in /  0mm 214 W/m2
17:39 71.6 °F /  22 °C 54.1 °F /  12.3 °C 30.38in /  1028.7hPa NNE 0.8mph /  1.3km/h 4mph /  6.4km/h 53.9% 0.00in /  0mm 199 W/m2
17:44 71.6 °F /  22 °C 53.6 °F /  12 °C 30.38in /  1028.7hPa NE 2.6mph /  4.2km/h 5mph /  8km/h 53% 0.00in /  0mm 185 W/m2
17:49 71 °F /  21.7 °C 53.4 °F /  11.9 °C 30.38in /  1028.7hPa NE 3.4mph /  5.5km/h 6mph /  9.7km/h 53.7% 0.00in /  0mm 169 W/m2
17:54 70.3 °F /  21.3 °C 53.2 °F /  11.8 °C 30.38in /  1028.7hPa NE 2.3mph /  3.7km/h 7mph /  11.3km/h 54.7% 0.00in /  0mm 156 W/m2
17:59 70.4 °F /  21.3 °C 53.5 °F /  11.9 °C 30.38in /  1028.7hPa NNE 0.9mph /  1.4km/h 5mph /  8km/h 55% 0.00in /  0mm 142 W/m2
18:04 70.5 °F /  21.4 °C 53.6 °F /  12 °C 30.38in /  1028.7hPa NE 2.4mph /  3.9km/h 7mph /  11.3km/h 55% 0.00in /  0mm 128 W/m2
18:09 70.2 °F /  21.2 °C 53.2 °F /  11.8 °C 30.38in /  1028.7hPa NE 3.3mph /  5.3km/h 5mph /  8km/h 55% 0.00in /  0mm 113 W/m2
18:14 69.7 °F /  20.9 °C 53.2 °F /  11.8 °C 30.38in /  1028.7hPa NNE 2.5mph /  4km/h 6mph /  9.7km/h 55.8% 0.00in /  0mm 98 W/m2
18:19 69.2 °F /  20.7 °C 53.1 °F /  11.7 °C 30.38in /  1028.7hPa NNE 2.5mph /  4km/h 6mph /  9.7km/h 56.6% 0.00in /  0mm 86 W/m2
18:24 68.7 °F /  20.4 °C 52.9 °F /  11.6 °C 30.38in /  1028.7hPa NNE 0.9mph /  1.4km/h 4mph /  6.4km/h 57% 0.00in /  0mm 74 W/m2
18:29 69 °F /  20.6 °C 53.2 °F /  11.8 °C 30.38in /  1028.7hPa NNE 1.1mph /  1.8km/h 4mph /  6.4km/h 57.2% 0.00in /  0mm 65 W/m2
18:34 69 °F /  20.6 °C 53.1 °F /  11.7 °C 30.38in /  1028.7hPa NNE 1mph /  1.6km/h 4mph /  6.4km/h 57% 0.00in /  0mm 53 W/m2
18:39 68.7 °F /  20.4 °C 52.9 °F /  11.6 °C 30.38in /  1028.7hPa NNE 1.4mph /  2.3km/h 4mph /  6.4km/h 57.1% 0.00in /  0mm 42 W/m2
18:44 68.4 °F /  20.2 °C 53.1 °F /  11.7 °C 30.38in /  1028.7hPa NNE 0.8mph /  1.3km/h 3mph /  4.8km/h 58% 0.00in /  0mm 33 W/m2
18:49 68 °F /  20 °C 52.8 °F /  11.6 °C 30.38in /  1028.7hPa NNE 0.9mph /  1.4km/h 3mph /  4.8km/h 58.3% 0.00in /  0mm 25 W/m2
18:54 67.8 °F /  19.9 °C 52.8 °F /  11.6 °C 30.38in /  1028.7hPa NNE 0.6mph /  1km/h 2mph /  3.2km/h 58.7% 0.00in /  0mm 19 W/m2
18:59 67.5 °F /  19.7 °C 52.8 °F /  11.6 °C 30.37in /  1028.3hPa NNE 0.6mph /  1km/h 3mph /  4.8km/h 59% 0.00in /  0mm 16 W/m2
19:04 67 °F /  19.4 °C 52.5 °F /  11.4 °C 30.37in /  1028.3hPa NNE 0.2mph /  0.3km/h 3mph /  4.8km/h 59.9% 0.00in /  0mm 14 W/m2
19:09 66.7 °F /  19.3 °C 52.7 °F /  11.5 °C 30.37in /  1028.3hPa NNE 0.3mph /  0.5km/h 2mph /  3.2km/h 60.7% 0.00in /  0mm 11 W/m2
19:14 66.5 °F /  19.2 °C 52.6 °F /  11.4 °C 30.37in /  1028.3hPa NNE 0.2mph /  0.3km/h 2mph /  3.2km/h 61% 0.00in /  0mm 9 W/m2
19:19 66.3 °F /  19.1 °C 52.9 °F /  11.6 °C 30.37in /  1028.3hPa Calm   1mph /  1.6km/h 62% 0.00in /  0mm 5 W/m2
19:24 66.1 °F /  18.9 °C 52.8 °F /  11.6 °C 30.37in /  1028.3hPa Calm     62% 0.00in /  0mm 0 W/m2
19:29 65.8 °F /  18.8 °C 52.5 °F /  11.4 °C 30.38in /  1028.7hPa Calm     62% 0.00in /  0mm 0 W/m2
19:34 65.7 °F /  18.7 °C 52.3 °F /  11.3 °C 30.38in /  1028.7hPa Calm     62% 0.00in /  0mm 0 W/m2
19:39 65.2 °F /  18.4 °C 52.3 °F /  11.3 °C 30.38in /  1028.7hPa Calm     63.2% 0.00in /  0mm 0 W/m2
19:44 64.7 °F /  18.2 °C 52.2 °F /  11.2 °C 30.38in /  1028.7hPa NNE 0.2mph /  0.3km/h 1mph /  1.6km/h 63.8% 0.00in /  0mm 0 W/m2
19:49 64 °F /  17.8 °C 51.9 °F /  11.1 °C 30.38in /  1028.7hPa Calm     64.8% 0.00in /  0mm 0 W/m2
19:54 63.4 °F /  17.4 °C 51.7 °F /  10.9 °C 30.38in /  1028.7hPa Calm     65.6% 0.00in /  0mm 0 W/m2
19:59 63.2 °F /  17.3 °C 51.8 °F /  11 °C 30.38in /  1028.7hPa Calm     66.3% 0.00in /  0mm 0 W/m2
20:04 62.8 °F /  17.1 °C 51.6 °F /  10.9 °C 30.38in /  1028.7hPa Calm     67% 0.00in /  0mm 0 W/m2
20:09 62.5 °F /  16.9 °C 51.7 °F /  10.9 °C 30.38in /  1028.7hPa Calm     67.7% 0.00in /  0mm 0 W/m2
20:14 62.3 °F /  16.8 °C 51.7 °F /  10.9 °C 30.38in /  1028.7hPa Calm     68% 0.00in /  0mm 0 W/m2
20:19 62.1 °F /  16.7 °C 51.4 °F /  10.8 °C 30.38in /  1028.7hPa Calm     68% 0.00in /  0mm 0 W/m2
20:24 61.6 °F /  16.4 °C 51.2 °F /  10.7 °C 30.38in /  1028.7hPa NE 0.8mph /  1.3km/h 4mph /  6.4km/h 68.7% 0.00in /  0mm 0 W/m2
20:29 60.7 °F /  15.9 °C 50.7 °F /  10.4 °C 30.38in /  1028.7hPa NE 1.1mph /  1.8km/h 5mph /  8km/h 69.7% 0.00in /  0mm 0 W/m2
20:34 60.5 °F /  15.8 °C 50.6 °F /  10.3 °C 30.38in /  1028.7hPa Calm     70% 0.00in /  0mm 0 W/m2
20:39 60.4 °F /  15.8 °C 50.5 °F /  10.3 °C 30.38in /  1028.7hPa Calm     70% 0.00in /  0mm 0 W/m2
20:44 60.4 °F /  15.8 °C 50.7 °F /  10.4 °C 30.38in /  1028.7hPa Calm     70.4% 0.00in /  0mm 0 W/m2
20:49 60.1 °F /  15.6 °C 50.7 °F /  10.4 °C 30.38in /  1028.7hPa Calm     71% 0.00in /  0mm 0 W/m2
20:54 59.5 °F /  15.3 °C 50.3 °F /  10.2 °C 30.38in /  1028.7hPa Calm     71.3% 0.00in /  0mm 0 W/m2
20:59 58.9 °F /  14.9 °C 49.9 °F /  9.9 °C 30.38in /  1028.7hPa Calm     72% 0.00in /  0mm 0 W/m2
21:04 58.5 °F /  14.7 °C 49.8 °F /  9.9 °C 30.38in /  1028.7hPa Calm     73% 0.00in /  0mm 0 W/m2
21:09 58.2 °F /  14.6 °C 49.5 °F /  9.7 °C 30.38in /  1028.7hPa Calm     73% 0.00in /  0mm 0 W/m2
21:14 58.1 °F /  14.5 °C 49.5 °F /  9.7 °C 30.38in /  1028.7hPa Calm     73% 0.00in /  0mm 0 W/m2
21:19 58.1 °F /  14.5 °C 49.5 °F /  9.7 °C 30.38in /  1028.7hPa Calm     73% 0.00in /  0mm 0 W/m2
21:24 57.9 °F /  14.4 °C 49.4 °F /  9.7 °C 30.38in /  1028.7hPa Calm     73.3% 0.00in /  0mm 0 W/m2
21:29 57.7 °F /  14.3 °C 49.5 °F /  9.7 °C 30.39in /  1029hPa Calm     74% 0.00in /  0mm 0 W/m2
21:34 57.7 °F /  14.3 °C 49.4 °F /  9.7 °C 30.39in /  1029hPa Calm     74% 0.00in /  0mm 0 W/m2
21:39 57.4 °F /  14.1 °C 49.1 °F /  9.5 °C 30.38in /  1028.7hPa Calm     74% 0.00in /  0mm 0 W/m2
21:44 57.1 °F /  13.9 °C 48.8 °F /  9.3 °C 30.39in /  1029hPa Calm     74% 0.00in /  0mm 0 W/m2
21:49 56.9 °F /  13.8 °C 48.7 °F /  9.3 °C 30.38in /  1028.7hPa Calm     74% 0.00in /  0mm 0 W/m2
21:54 56.8 °F /  13.8 °C 48.5 °F /  9.2 °C 30.38in /  1028.7hPa Calm     74% 0.00in /  0mm 0 W/m2
21:59 56.7 °F /  13.7 °C 48.4 °F /  9.1 °C 30.38in /  1028.7hPa Calm     74% 0.00in /  0mm 0 W/m2
22:04 56.6 °F /  13.7 °C 48.7 °F /  9.3 °C 30.38in /  1028.7hPa Calm     74.9% 0.00in /  0mm 0 W/m2
22:09 56.5 °F /  13.6 °C 48.7 °F /  9.3 °C 30.38in /  1028.7hPa Calm     75% 0.00in /  0mm 0 W/m2
22:14 56.3 °F /  13.5 °C 48.6 °F /  9.2 °C 30.38in /  1028.7hPa Calm     75% 0.00in /  0mm 0 W/m2
22:19 56.1 °F /  13.4 °C 48.4 °F /  9.1 °C 30.38in /  1028.7hPa Calm     75% 0.00in /  0mm 0 W/m2
22:24 55.9 °F /  13.3 °C 48.1 °F /  8.9 °C 30.38in /  1028.7hPa Calm     75% 0.00in /  0mm 0 W/m2
22:29 55.5 °F /  13.1 °C 47.8 °F /  8.8 °C 30.38in /  1028.7hPa Calm     75.2% 0.00in /  0mm 0 W/m2
22:34 55 °F /  12.8 °C 47.6 °F /  8.7 °C 30.38in /  1028.7hPa Calm     75.8% 0.00in /  0mm 0 W/m2
22:39 54.8 °F /  12.7 °C 47.6 °F /  8.7 °C 30.38in /  1028.7hPa Calm     76.5% 0.00in /  0mm 0 W/m2
22:44 54.6 °F /  12.6 °C 47.6 °F /  8.7 °C 30.38in /  1028.7hPa Calm     77.1% 0.00in /  0mm 0 W/m2
22:49 54.5 °F /  12.5 °C 47.8 °F /  8.8 °C 30.38in /  1028.7hPa Calm     78% 0.00in /  0mm 0 W/m2
22:54 54.5 °F /  12.5 °C 47.8 °F /  8.8 °C 30.38in /  1028.7hPa Calm     78.1% 0.00in /  0mm 0 W/m2
22:59 54.2 °F /  12.3 °C 47.9 °F /  8.8 °C 30.38in /  1028.7hPa NE 0.2mph /  0.3km/h 1mph /  1.6km/h 79% 0.00in /  0mm 0 W/m2
23:04 54.1 °F /  12.3 °C 47.8 °F /  8.8 °C 30.38in /  1028.7hPa Calm   1mph /  1.6km/h 79% 0.00in /  0mm 0 W/m2
23:09 54 °F /  12.2 °C 47.9 °F /  8.8 °C 30.38in /  1028.7hPa Calm     79.7% 0.00in /  0mm 0 W/m2
23:14 53.9 °F /  12.2 °C 47.9 °F /  8.8 °C 30.39in /  1029hPa Calm     80% 0.00in /  0mm 0 W/m2
23:19 53.8 °F /  12.1 °C 47.8 °F /  8.8 °C 30.39in /  1029hPa NE 0.4mph /  0.6km/h 2mph /  3.2km/h 80% 0.00in /  0mm 0 W/m2
23:24 53.7 °F /  12.1 °C 47.8 °F /  8.8 °C 30.39in /  1029hPa NE 0.9mph /  1.4km/h 3mph /  4.8km/h 80% 0.00in /  0mm 0 W/m2
23:29 53.6 °F /  12 °C 47.7 °F /  8.7 °C 30.39in /  1029hPa Calm   3mph /  4.8km/h 80% 0.00in /  0mm 0 W/m2
23:34 53.5 °F /  11.9 °C 47.7 °F /  8.7 °C 30.39in /  1029hPa Calm     80.3% 0.00in /  0mm 0 W/m2
23:39 53.4 °F /  11.9 °C 47.7 °F /  8.7 °C 30.39in /  1029hPa Calm   1mph /  1.6km/h 81% 0.00in /  0mm 0 W/m2
23:44 53.4 °F /  11.9 °C 47.7 °F /  8.7 °C 30.39in /  1029hPa Calm     81% 0.00in /  0mm 0 W/m2
23:49 53.2 °F /  11.8 °C 47.5 °F /  8.6 °C 30.39in /  1029hPa Calm     81% 0.00in /  0mm 0 W/m2
23:54 53.2 °F /  11.8 °C 47.5 °F /  8.6 °C 30.39in /  1029hPa Calm     81% 0.00in /  0mm 0 W/m2
23:59 53.1 °F /  11.7 °C 47.3 °F /  8.5 °C 30.39in /  1029hPa Calm     81.1% 0.00in /  0mm 0 W/m2
Bath Spa Weather
Compliments of Weather Underground - 2 mb